Portada
METAR-TAF:

METAR-TAF

Aeroports :

Nan, Tailàndia

latitud: 18-46N, longitud: 100-46E, altitud: 200 m

Observació

L'informe es va fer fa 16 minuts, a les 00:00 UTC
Vent 3 kt del Nord/Nord-Oest
Temperatura 22°C
Humitat 100%
Pressió 1007 hPa
Visibilitat: 9000 m

METAR: VTCN 220000Z 34003KT 9000 NSC 22/22 Q1007 NOSIG

Hora: 07:16 (00:16 UTC)

Pronòstic

L'informe es va fer fa 1 hora i 16 minuts, a les 23:00 UTC
Pronòstic vàlid del 22 a les 00 UTC al 22 a les 24 UTC
Vent 5 kt del Sud/Sud-Oest
Visibilitat 10 km o més
Escasses núvols a una alçada de 2500 ft
Temporalment
l' 22 a les 09 UTC al 22 a les 13 UTC
Vent 15 kt amb direcció variable amb ràfegues de 30 kt
Visibilitat: 5000 m
Escasses núvols a una alçada de 1800 ft, Cumulonimbus.
Cel ennuvolat a una alçada de 2000 ft
tempesta, pluja

TAF: VTCN 212300Z 2200/2224 20005KT 9999 FEW025 TEMPO 2209/2213 VRB15G30KT 5000 TSRA FEW018CB BKN020

Observacions i pronòstics meteorològics de més de 4000 aeroports (METAR i TAF).

Les estacions disponibles són els punts grocs i vermells al mapa.

Posi el ratolí al punt desitjat per veure el nom de l'estació.

Feu clic per veure les observacions i els pronòstics meteorològics.

Per canviar el mapa: feu clic els botons verds amb una creu de color negre per apropar; al botó verd amb un guió per allunyar la imatge; o en les fletxes verdes per a mapes adjacents.


METAR-TAF: